Aviation Digital Data Service (ADDS)

Output produced by METARs form (1155 UTC 24 August 2016)
found at http://aviationweather.gov/adds/metars/
 
KBVI 241120Z 2412/2512 20008KT P6SM BKN200 
     FM242100 21010KT P6SM OVC100 
     FM250800 18005KT 6SM -RA OVC050